Beloit, Wisconsin
Current Conditions -  °F | °C
As of 5:45 AM on Friday 21 Nov 2014 (Local Time) from KJVL Reporting Station
Clear Clear  
Wind Chill: -16°   Ceiling: Unl
Heat Index: -16°   Visibility: 10mi
Dew Point: -18°   Wind: 0mph
Humidity: 85%   Direction: NA
Pressure: 30.28"   Gusts: NA
Location:  42.51°N, 89.03°W
Report Text: KJVL 211145Z 00000KT 10SM SKC M16/M18 A3028 RMK FIRST
Loading
Personal Weather Stations






























Interactive Weather Map New forecast layout! Learn more

10-Day Weather Forecast

Advertisements
Track Severe Weather on mobile